createdAt,value
2023-03-31T00:00:41.604Z,0.88
2023-03-31T00:03:10.203Z,1.65
2023-03-31T00:05:37.945Z,0.80
2023-03-31T00:08:05.142Z,0.88
2023-03-31T00:10:34.060Z,1.00
2023-03-31T00:13:04.201Z,1.83
2023-03-31T00:15:31.228Z,1.08
2023-03-31T00:18:00.384Z,1.02
2023-03-31T00:20:27.712Z,0.77
2023-03-31T00:22:54.765Z,0.70
2023-03-31T00:25:21.916Z,0.73
2023-03-31T00:27:50.360Z,1.00
2023-03-31T00:30:17.415Z,0.80
2023-03-31T00:32:44.457Z,0.52
2023-03-31T00:35:11.778Z,1.00
2023-03-31T00:37:39.922Z,2.78
2023-03-31T00:40:10.184Z,1.30
2023-03-31T00:42:44.086Z,1.08
2023-03-31T00:45:14.242Z,0.98
2023-03-31T00:47:42.872Z,1.02
2023-03-31T00:50:18.712Z,1.02
2023-03-31T00:52:46.120Z,1.02
2023-03-31T00:55:17.000Z,1.88
2023-03-31T00:57:45.249Z,1.25
2023-03-31T01:00:16.446Z,0.95
2023-03-31T01:02:52.116Z,1.08
2023-03-31T01:05:27.669Z,1.13
2023-03-31T01:07:55.192Z,1.67
2023-03-31T01:10:23.117Z,1.20
2023-03-31T01:12:52.351Z,1.45
2023-03-31T01:15:19.406Z,1.67
2023-03-31T01:17:47.298Z,1.40
2023-03-31T01:20:14.685Z,1.30
2023-03-31T01:23:00.372Z,1.08
2023-03-31T01:25:38.545Z,1.52
2023-03-31T01:28:17.584Z,1.45
2023-03-31T01:31:03.225Z,1.08
2023-03-31T01:33:40.821Z,1.50
2023-03-31T01:36:19.791Z,1.80
2023-03-31T01:39:13.910Z,2.53
2023-03-31T01:41:50.741Z,1.77
2023-03-31T01:44:32.772Z,1.80
2023-03-31T01:47:11.876Z,1.58
2023-03-31T01:49:56.355Z,2.05
2023-03-31T01:52:36.160Z,1.50
2023-03-31T01:55:12.894Z,1.95
2023-03-31T01:57:48.071Z,1.42
2023-03-31T02:00:16.581Z,1.33
2023-03-31T02:03:11.663Z,1.70
2023-03-31T02:05:42.633Z,1.27
2023-03-31T02:08:15.726Z,1.13
2023-03-31T02:10:43.761Z,1.70
2023-03-31T02:13:12.233Z,1.52
2023-03-31T02:15:41.564Z,2.15
2023-03-31T02:18:11.691Z,1.90
2023-03-31T02:20:42.056Z,1.58
2023-03-31T02:23:10.927Z,1.80
2023-03-31T02:25:41.273Z,2.33
2023-03-31T02:28:13.734Z,2.00
2023-03-31T02:30:54.046Z,1.85
2023-03-31T02:33:21.190Z,1.80
2023-03-31T02:35:48.347Z,2.15
2023-03-31T02:38:15.744Z,1.70
2023-03-31T02:40:42.740Z,2.13
2023-03-31T02:45:51.431Z,1.40
2023-03-31T02:48:24.709Z,1.60
2023-03-31T02:51:10.321Z,2.33
2023-03-31T02:53:47.979Z,1.73
2023-03-31T02:56:24.186Z,2.17
2023-03-31T02:59:14.168Z,2.00
2023-03-31T03:01:46.596Z,2.28
2023-03-31T03:04:37.763Z,1.88
2023-03-31T03:07:18.476Z,2.08
2023-03-31T03:09:48.549Z,2.13
2023-03-31T03:12:25.164Z,1.88
2023-03-31T03:14:56.637Z,1.65
2023-03-31T03:17:29.983Z,1.92
2023-03-31T03:19:59.788Z,1.63
2023-03-31T03:22:26.872Z,1.67
2023-03-31T03:24:54.280Z,1.30
2023-03-31T03:27:24.683Z,1.85
2023-03-31T03:29:51.865Z,1.30
2023-03-31T03:32:18.915Z,1.38
2023-03-31T03:34:46.125Z,2.00
2023-03-31T03:37:13.174Z,1.33
2023-03-31T03:39:42.334Z,1.35
2023-03-31T03:42:09.385Z,1.33
2023-03-31T03:44:36.443Z,1.40
2023-03-31T03:47:03.691Z,1.40
2023-03-31T03:49:30.786Z,1.20
2023-03-31T03:54:38.878Z,1.38
2023-03-31T03:57:07.328Z,1.02
2023-03-31T03:59:34.388Z,1.23
2023-03-31T04:02:01.483Z,1.10
2023-03-31T04:04:28.514Z,1.35
2023-03-31T04:07:03.577Z,1.10
2023-03-31T04:09:30.860Z,1.00
2023-03-31T04:11:57.944Z,0.95
2023-03-31T04:14:25.897Z,1.20
2023-03-31T04:16:56.083Z,1.30
2023-03-31T04:19:25.762Z,0.85
2023-03-31T04:21:59.162Z,1.10
2023-03-31T04:24:30.535Z,0.95
2023-03-31T04:26:58.213Z,1.02
2023-03-31T04:29:26.785Z,0.77
2023-03-31T04:31:58.718Z,1.45
2023-03-31T04:34:34.502Z,1.00
2023-03-31T04:37:02.699Z,1.42
2023-03-31T04:39:33.228Z,1.02
2023-03-31T04:42:00.668Z,1.67
2023-03-31T04:44:27.901Z,0.73
2023-03-31T04:46:55.622Z,1.17
2023-03-31T04:49:22.769Z,0.85
2023-03-31T04:51:50.748Z,1.00
2023-03-31T04:54:17.936Z,1.70
2023-03-31T04:56:45.013Z,0.98
2023-03-31T04:59:12.075Z,1.33
2023-03-31T05:01:39.236Z,1.63
2023-03-31T05:04:06.456Z,1.10
2023-03-31T05:06:33.933Z,1.27
2023-03-31T05:09:00.965Z,1.25
2023-03-31T05:11:28.869Z,1.30
2023-03-31T05:13:55.973Z,1.10
2023-03-31T05:16:23.034Z,1.75
2023-03-31T05:18:50.197Z,0.85
2023-03-31T05:21:18.700Z,1.20
2023-03-31T05:23:46.221Z,0.98
2023-03-31T05:26:13.753Z,0.80
2023-03-31T05:28:41.375Z,0.70
2023-03-31T05:31:08.932Z,1.13
2023-03-31T05:33:41.184Z,0.70
2023-03-31T05:38:41.852Z,0.80
2023-03-31T05:41:09.562Z,0.80
2023-03-31T05:43:37.111Z,0.55
2023-03-31T05:46:04.674Z,1.45
2023-03-31T05:48:39.789Z,0.55
2023-03-31T05:51:06.924Z,0.60
2023-03-31T05:53:34.912Z,0.57
2023-03-31T05:56:03.158Z,0.68
2023-03-31T05:58:31.061Z,0.77
2023-03-31T06:01:01.825Z,0.50
2023-03-31T06:03:39.361Z,0.38
2023-03-31T06:06:08.009Z,0.22
2023-03-31T06:08:36.099Z,0.30
2023-03-31T06:11:10.276Z,0.40
2023-03-31T06:13:38.146Z,0.40
2023-03-31T06:16:05.781Z,0.50
2023-03-31T06:18:34.590Z,0.40
2023-03-31T06:21:01.653Z,0.43
2023-03-31T06:23:28.871Z,0.40
2023-03-31T06:25:59.834Z,0.40
2023-03-31T06:28:26.944Z,0.57
2023-03-31T06:31:00.366Z,0.70
2023-03-31T06:33:31.338Z,0.80
2023-03-31T06:35:59.491Z,0.50
2023-03-31T06:41:02.260Z,0.50
2023-03-31T06:43:29.736Z,0.60
2023-03-31T06:45:56.924Z,0.70
2023-03-31T06:48:29.942Z,0.40
2023-03-31T06:50:59.828Z,1.35
2023-03-31T06:53:27.225Z,0.47
2023-03-31T06:55:54.675Z,0.30
2023-03-31T06:58:22.386Z,0.65
2023-03-31T07:00:49.488Z,0.85
2023-03-31T07:03:31.858Z,0.65
2023-03-31T07:05:59.139Z,0.60
2023-03-31T07:08:26.258Z,1.20
2023-03-31T07:10:57.891Z,1.67
2023-03-31T07:13:25.710Z,0.50
2023-03-31T07:15:53.200Z,0.40
2023-03-31T07:18:21.851Z,0.60
2023-03-31T07:20:50.607Z,0.60
2023-03-31T07:23:17.876Z,0.85
2023-03-31T07:25:45.558Z,0.50
2023-03-31T07:28:12.599Z,1.00
2023-03-31T07:30:40.683Z,0.50
2023-03-31T07:35:59.898Z,0.50
2023-03-31T07:38:31.264Z,0.40
2023-03-31T07:41:07.691Z,0.50
2023-03-31T07:43:35.832Z,0.60
2023-03-31T07:46:03.134Z,0.55
2023-03-31T07:48:30.296Z,0.50
2023-03-31T07:50:57.372Z,0.65
2023-03-31T07:53:24.402Z,0.88
2023-03-31T07:55:51.646Z,0.43
2023-03-31T07:58:18.687Z,0.70
2023-03-31T08:00:45.987Z,0.77
2023-03-31T08:03:13.063Z,0.57
2023-03-31T08:05:40.161Z,0.70
2023-03-31T08:08:07.268Z,0.40
2023-03-31T08:10:37.133Z,0.70
2023-03-31T08:13:04.245Z,0.90
2023-03-31T08:15:31.488Z,1.02
2023-03-31T08:18:19.984Z,1.00
2023-03-31T08:20:49.738Z,0.80
2023-03-31T08:23:16.921Z,1.00
2023-03-31T08:25:43.938Z,1.00
2023-03-31T08:28:14.041Z,1.45
2023-03-31T08:30:41.770Z,1.45
2023-03-31T08:33:09.178Z,1.00
2023-03-31T08:35:36.387Z,1.60
2023-03-31T08:38:03.884Z,1.00
2023-03-31T08:40:31.622Z,1.10
2023-03-31T08:43:21.433Z,1.42
2023-03-31T08:45:50.003Z,1.13
2023-03-31T08:48:22.578Z,1.50
2023-03-31T08:53:38.024Z,1.50
2023-03-31T08:56:06.180Z,1.60
2023-03-31T08:58:33.403Z,1.75
2023-03-31T09:01:19.781Z,2.20
2023-03-31T09:04:12.454Z,3.30
2023-03-31T09:06:39.866Z,1.83
2023-03-31T09:09:10.667Z,1.88
2023-03-31T09:12:01.284Z,1.27
2023-03-31T09:14:37.517Z,1.38
2023-03-31T09:17:17.639Z,2.50
2023-03-31T09:19:59.100Z,1.83
2023-03-31T09:22:29.277Z,1.40
2023-03-31T09:25:06.518Z,1.70
2023-03-31T09:27:35.344Z,1.88
2023-03-31T09:30:05.295Z,1.40
2023-03-31T09:32:33.598Z,1.90
2023-03-31T09:35:02.091Z,1.55
2023-03-31T09:37:33.312Z,1.73
2023-03-31T09:40:01.365Z,2.15
2023-03-31T09:42:28.473Z,1.90
2023-03-31T09:44:55.994Z,2.00
2023-03-31T09:47:32.596Z,1.58
2023-03-31T09:49:59.876Z,2.65
2023-03-31T09:52:35.012Z,2.08
2023-03-31T09:55:03.147Z,1.70
2023-03-31T09:57:33.550Z,2.78
2023-03-31T10:00:14.053Z,2.35
2023-03-31T10:02:45.957Z,1.65
2023-03-31T10:05:31.588Z,1.58
2023-03-31T10:08:18.952Z,1.40
2023-03-31T10:11:09.033Z,2.10
2023-03-31T10:13:39.722Z,1.42
2023-03-31T10:18:41.325Z,1.20
2023-03-31T10:21:16.419Z,1.30
2023-03-31T10:23:47.038Z,1.52
2023-03-31T10:26:17.473Z,1.38
2023-03-31T10:28:45.372Z,1.45
2023-03-31T10:31:12.813Z,1.73
2023-03-31T10:33:48.460Z,1.88
2023-03-31T10:36:19.784Z,1.90
2023-03-31T10:38:48.319Z,2.08
2023-03-31T10:41:19.165Z,2.15
2023-03-31T10:43:53.536Z,1.80
2023-03-31T10:46:21.213Z,1.50
2023-03-31T10:48:48.268Z,1.50
2023-03-31T10:51:22.509Z,1.65
2023-03-31T10:53:50.971Z,1.17
2023-03-31T10:56:36.989Z,1.25
2023-03-31T10:59:10.216Z,1.70
2023-03-31T11:01:40.386Z,1.60
2023-03-31T11:04:10.855Z,2.17
2023-03-31T11:06:44.181Z,2.08
2023-03-31T11:09:14.784Z,1.63
2023-03-31T11:20:09.880Z,1.30
2023-03-31T11:23:07.422Z,1.70
2023-03-31T11:25:43.199Z,1.10
2023-03-31T11:28:27.203Z,2.05
2023-03-31T11:31:32.555Z,1.67
2023-03-31T11:34:33.154Z,1.38
2023-03-31T11:40:07.791Z,1.95
2023-03-31T11:42:39.802Z,1.60
2023-03-31T11:45:32.156Z,2.33
2023-03-31T11:48:06.958Z,2.25
2023-03-31T11:50:38.535Z,3.00
2023-03-31T11:55:56.147Z,2.33
2023-03-31T11:58:43.062Z,2.35
2023-03-31T12:01:13.270Z,1.85
2023-03-31T12:03:48.332Z,1.90
2023-03-31T12:06:20.704Z,1.00
2023-03-31T12:08:54.093Z,1.23
2023-03-31T12:11:27.118Z,0.95
2023-03-31T12:13:59.532Z,1.13
2023-03-31T12:16:46.169Z,0.70
2023-03-31T12:19:24.696Z,0.80
2023-03-31T12:22:09.599Z,0.90
2023-03-31T12:24:36.970Z,0.98
2023-03-31T12:27:16.077Z,0.65
2023-03-31T12:29:55.277Z,0.50
2023-03-31T12:32:24.608Z,0.50
2023-03-31T12:34:57.695Z,1.10
2023-03-31T12:37:30.592Z,1.27
2023-03-31T12:40:06.867Z,1.38
2023-03-31T12:42:55.103Z,0.75
2023-03-31T12:45:44.537Z,1.27
2023-03-31T12:48:14.521Z,1.13
2023-03-31T12:51:00.106Z,2.65
2023-03-31T12:53:46.229Z,0.77
2023-03-31T12:56:15.040Z,1.50
2023-03-31T12:58:43.406Z,0.77
2023-03-31T13:01:14.352Z,0.90
2023-03-31T13:03:41.500Z,1.10
2023-03-31T13:06:11.111Z,1.48
2023-03-31T13:08:56.774Z,1.50
2023-03-31T13:11:36.842Z,1.50
2023-03-31T13:14:11.081Z,1.40
2023-03-31T13:16:38.189Z,1.95
2023-03-31T13:19:05.847Z,1.55
2023-03-31T13:21:40.209Z,1.85
2023-03-31T13:24:08.835Z,2.85
2023-03-31T13:26:36.861Z,1.40
2023-03-31T13:29:07.085Z,0.98
2023-03-31T13:34:44.456Z,1.30
2023-03-31T13:37:23.458Z,1.00
2023-03-31T13:39:53.368Z,1.08
2023-03-31T13:42:23.176Z,0.60
2023-03-31T13:58:39.215Z,1.00
2023-03-31T14:01:12.932Z,1.10
2023-03-31T14:03:46.019Z,1.58
2023-03-31T14:06:28.607Z,1.75
2023-03-31T14:08:57.673Z,1.52
2023-03-31T14:11:31.087Z,1.70
2023-03-31T14:14:03.620Z,1.40
2023-03-31T14:16:32.982Z,1.90
2023-03-31T14:21:57.901Z,1.10
2023-03-31T14:24:43.499Z,1.20
2023-03-31T14:27:45.693Z,1.40
2023-03-31T14:30:52.772Z,1.08
2023-03-31T14:33:26.083Z,2.28
2023-03-31T14:36:33.780Z,1.27
2023-03-31T14:39:05.986Z,1.10
2023-03-31T14:41:33.986Z,0.85
2023-03-31T14:44:01.926Z,0.85
2023-03-31T14:46:32.854Z,1.05
2023-03-31T14:49:23.399Z,0.70
2023-03-31T14:51:53.020Z,0.77
2023-03-31T14:54:21.902Z,1.10
2023-03-31T14:56:54.918Z,1.52
2023-03-31T14:59:25.219Z,0.95
2023-03-31T15:01:52.121Z,1.00
2023-03-31T15:04:31.791Z,1.05
2023-03-31T15:07:06.444Z,0.80
2023-03-31T15:09:35.955Z,1.58
2023-03-31T15:12:05.402Z,1.20
2023-03-31T15:14:34.455Z,1.55
2023-03-31T15:25:06.818Z,1.35
2023-03-31T15:27:50.728Z,1.05
2023-03-31T15:30:19.344Z,1.33
2023-03-31T15:35:41.122Z,1.42
2023-03-31T15:38:12.219Z,0.90
2023-03-31T15:40:40.933Z,1.77
2023-03-31T15:43:25.575Z,0.90
2023-03-31T15:45:54.358Z,1.20
2023-03-31T15:48:21.464Z,0.95
2023-03-31T15:50:49.080Z,0.60
2023-03-31T15:53:23.862Z,1.50
2023-03-31T16:01:41.656Z,0.80
2023-03-31T16:04:13.875Z,1.10
2023-03-31T16:06:53.155Z,0.90
2023-03-31T16:09:25.700Z,0.60
2023-03-31T16:11:54.352Z,0.95
2023-03-31T16:14:30.387Z,0.63
2023-03-31T16:17:03.892Z,0.65
2023-03-31T16:19:39.257Z,0.60
2023-03-31T16:22:08.329Z,1.08
2023-03-31T16:24:36.587Z,0.77
2023-03-31T16:27:06.832Z,0.68
2023-03-31T16:29:35.847Z,0.70
2023-03-31T16:32:15.005Z,0.80
2023-03-31T16:37:29.318Z,0.50
2023-03-31T16:39:57.114Z,0.70
2023-03-31T16:42:24.694Z,0.65
2023-03-31T16:45:09.636Z,1.10
2023-03-31T16:47:38.878Z,0.80
2023-03-31T16:52:53.798Z,0.70
2023-03-31T16:55:20.545Z,1.10
2023-03-31T16:57:47.147Z,0.77
2023-03-31T17:00:14.278Z,0.80
2023-03-31T17:02:41.418Z,0.55
2023-03-31T17:05:13.221Z,0.82
2023-03-31T17:07:40.784Z,0.80
2023-03-31T17:10:08.301Z,1.10
2023-03-31T17:12:35.000Z,0.80
2023-03-31T17:15:01.598Z,0.88
2023-03-31T17:17:29.675Z,1.02
2023-03-31T17:19:57.336Z,0.85
2023-03-31T17:22:24.006Z,3.53
2023-03-31T17:30:12.252Z,0.68
2023-03-31T17:32:39.086Z,1.05
2023-03-31T17:35:07.094Z,1.08
2023-03-31T17:37:37.205Z,1.00
2023-03-31T17:40:07.259Z,0.68
2023-03-31T17:42:34.221Z,1.00
2023-03-31T17:45:03.640Z,1.35
2023-03-31T17:47:33.105Z,0.77
2023-03-31T17:50:03.137Z,0.73
2023-03-31T17:52:34.416Z,1.02
2023-03-31T17:55:06.435Z,1.20
2023-03-31T17:57:45.876Z,0.90
2023-03-31T18:00:15.093Z,1.20
2023-03-31T18:02:42.675Z,0.90
2023-03-31T18:05:10.744Z,0.60
2023-03-31T18:07:38.156Z,1.00
2023-03-31T18:10:05.897Z,0.90
2023-03-31T18:12:34.357Z,0.80
2023-03-31T18:15:02.662Z,0.82
2023-03-31T18:17:31.247Z,1.10
2023-03-31T18:19:58.967Z,0.73
2023-03-31T18:22:26.275Z,0.85
2023-03-31T18:24:52.990Z,1.02
2023-03-31T18:27:19.548Z,0.43
2023-03-31T18:29:46.349Z,0.88
2023-03-31T18:32:13.568Z,0.80
2023-03-31T18:34:40.815Z,0.70
2023-03-31T18:37:07.843Z,1.05
2023-03-31T18:39:34.625Z,0.57
2023-03-31T18:42:01.198Z,0.73
2023-03-31T18:44:27.874Z,0.90
2023-03-31T18:46:54.612Z,0.70
2023-03-31T18:49:22.454Z,0.68
2023-03-31T18:51:49.529Z,0.50
2023-03-31T18:54:17.223Z,0.50
2023-03-31T18:56:44.280Z,0.60
2023-03-31T18:59:11.397Z,0.50
2023-03-31T19:01:40.080Z,0.90
2023-03-31T19:04:07.832Z,0.52
2023-03-31T19:06:34.875Z,0.80
2023-03-31T19:09:01.524Z,1.05
2023-03-31T19:11:28.456Z,0.93
2023-03-31T19:13:55.927Z,0.70
2023-03-31T19:16:24.452Z,1.00
2023-03-31T19:18:51.281Z,1.20
2023-03-31T19:21:17.932Z,0.70
2023-03-31T19:23:44.560Z,0.90
2023-03-31T19:26:15.537Z,0.85
2023-03-31T19:28:42.395Z,0.88
2023-03-31T19:31:10.556Z,1.00
2023-03-31T19:33:37.362Z,0.95
2023-03-31T19:36:04.566Z,0.93
2023-03-31T19:38:32.624Z,1.00
2023-03-31T19:41:00.032Z,1.05
2023-03-31T19:43:27.675Z,0.90
2023-03-31T19:45:57.487Z,0.80
2023-03-31T19:48:26.660Z,0.60
2023-03-31T19:50:59.507Z,0.80
2023-03-31T19:53:26.757Z,1.00
2023-03-31T19:56:05.421Z,1.35
2023-03-31T19:58:38.738Z,0.80
2023-03-31T20:01:07.989Z,0.95
2023-03-31T20:03:35.189Z,0.70
2023-03-31T20:06:03.519Z,0.70
2023-03-31T20:08:30.153Z,0.93
2023-03-31T20:11:01.502Z,1.17
2023-03-31T20:13:28.278Z,1.55
2023-03-31T20:16:05.980Z,0.90
2023-03-31T20:18:39.348Z,0.80
2023-03-31T20:21:19.591Z,1.60
2023-03-31T20:23:46.747Z,1.17
2023-03-31T20:26:16.287Z,0.90
2023-03-31T20:28:43.380Z,1.05
2023-03-31T20:31:19.686Z,1.02
2023-03-31T20:33:46.846Z,1.10
2023-03-31T20:36:21.979Z,0.90
2023-03-31T20:38:53.879Z,0.70
2023-03-31T20:41:23.108Z,0.80
2023-03-31T20:43:50.622Z,1.10
2023-03-31T20:46:17.719Z,1.13
2023-03-31T20:48:52.327Z,1.77
2023-03-31T20:51:21.874Z,0.80
2023-03-31T20:53:50.229Z,1.00
2023-03-31T20:56:19.718Z,1.45
2023-03-31T21:01:18.122Z,1.10
2023-03-31T21:03:45.367Z,0.93
2023-03-31T21:06:14.254Z,2.40
2023-03-31T21:08:45.343Z,1.00
2023-03-31T21:11:13.768Z,1.20
2023-03-31T21:13:45.196Z,2.10
2023-03-31T21:16:13.778Z,1.00
2023-03-31T21:18:43.316Z,1.70
2023-03-31T21:21:14.794Z,1.10
2023-03-31T21:23:55.228Z,0.90
2023-03-31T21:26:26.362Z,1.20
2023-03-31T21:28:55.892Z,0.65
2023-03-31T21:31:30.536Z,1.13
2023-03-31T21:33:57.865Z,1.10
2023-03-31T21:36:25.528Z,0.93
2023-03-31T21:38:53.605Z,0.70
2023-03-31T21:41:26.536Z,0.85
2023-03-31T21:43:59.067Z,1.33
2023-03-31T21:46:29.308Z,0.85
2023-03-31T21:48:58.763Z,0.98
2023-03-31T21:51:28.559Z,0.70
2023-03-31T21:53:58.307Z,0.88
2023-03-31T21:56:32.018Z,0.60
2023-03-31T21:59:01.226Z,1.25
2023-03-31T22:01:28.263Z,0.60
2023-03-31T22:03:55.212Z,1.25
2023-03-31T22:06:22.519Z,1.77
2023-03-31T22:08:49.328Z,0.60
2023-03-31T22:11:16.683Z,0.73
2023-03-31T22:13:43.689Z,1.00
2023-03-31T22:16:19.657Z,0.63
2023-03-31T22:18:47.258Z,0.70
2023-03-31T22:21:19.932Z,1.15
2023-03-31T22:23:46.925Z,1.10
2023-03-31T22:26:13.551Z,0.65
2023-03-31T22:28:40.449Z,0.90
2023-03-31T22:31:11.855Z,0.65
2023-03-31T22:33:38.621Z,1.02
2023-03-31T22:36:08.558Z,0.75
2023-03-31T22:38:35.516Z,0.75
2023-03-31T22:41:02.540Z,1.00
2023-03-31T22:43:31.713Z,0.80
2023-03-31T22:46:05.538Z,0.60
2023-03-31T22:48:32.965Z,0.55
2023-03-31T22:51:06.318Z,1.00
2023-03-31T22:53:36.625Z,0.82
2023-03-31T22:56:15.759Z,0.95
2023-03-31T22:58:42.471Z,1.27
2023-03-31T23:01:16.000Z,0.90
2023-03-31T23:03:44.052Z,0.55
2023-03-31T23:06:14.492Z,0.70
2023-03-31T23:08:42.080Z,0.70
2023-03-31T23:11:11.876Z,0.70
2023-03-31T23:13:39.080Z,0.80
2023-03-31T23:16:20.387Z,0.60
2023-03-31T23:18:48.444Z,0.45
2023-03-31T23:21:21.542Z,1.48
2023-03-31T23:23:56.476Z,1.75
2023-03-31T23:26:27.771Z,0.68
2023-03-31T23:28:55.530Z,0.73
2023-03-31T23:31:27.873Z,0.52
2023-03-31T23:33:55.133Z,0.55
2023-03-31T23:36:25.022Z,0.63
2023-03-31T23:38:55.750Z,0.50
2023-03-31T23:41:37.239Z,0.40
2023-03-31T23:44:04.663Z,0.40
2023-03-31T23:46:31.890Z,0.40
2023-03-31T23:48:59.380Z,0.40
2023-03-31T23:51:26.228Z,0.28
2023-03-31T23:54:05.463Z,0.60
2023-03-31T23:56:34.525Z,0.68
2023-03-31T23:59:04.780Z,0.50
